Ace, TX

9:43 PM CDT on October 24, 2014 (GMT -0500)
RAWS COLDSPRINGS TX US | Change Station
CLOSE
Current Station
Personal Weather Station
Location: Coldspring, TX
Elevation: 145 ft
Nearby Weather Stations

Elev 145 ft 30.52 °N, 95.09 °W | Updated 41 minutes ago

Clear
Clear
61 °F
Feels Like 61 °F
N
1
Wind Variable Wind from ENE
Gusts 1.0 mph

Today
High -- | Low -- °F
--% Chance of Precip.
Yesterday
High -- | Low -- °F
Precip. -- in
7:27 AM 6:38 PM
New Moon, 2% visible
Pressure 30.13 in
Visibility 10.0 miles
Clouds Clear
Dew Point 58 °F
Humidity 91%
Rainfall 0.00 in
Snow Depth Not available.
UV 0 out of 12
Pollen 4.90 out of 12
Air Quality Not available.
Flu Activity Local Activity
METAR KCXO 250153Z 00000KT 10SM CLR 16/14 A3013 RMK AO2 SLP201 T01610144

More Conditions Fewer Conditions

Pressure 30.13 in
Visibility 10.0 miles
Clouds Clear
Dew Point 58 °F
Humidity 91%
Rainfall 0.00 in
Snow Depth Not available.
UV 0 out of 12
Pollen 4.90 out of 12
Air Quality Not available.
Flu Activity Local Activity
METAR KCXO 250153Z 00000KT 10SM CLR 16/14 A3013 RMK AO2 SLP201 T01610144

More Conditions Fewer Conditions

10-Day Weather Forecast

Almanac

Astronomy

Oct. 24, 2014 Rise Set
Actual Time 7:27 AM CDT 6:38 PM CDT
Civil Twilight 7:03 AM CDT 7:03 PM CDT
Nautical Twilight 6:35 AM CDT 7:31 PM CDT
Astronomical Twilight 6:07 AM CDT 7:59 PM CDT
Moon 8:05 AM CDT (10/24) 7:22 PM CDT (10/24)
Length of Visible Light 11h 59m
Length of Day
11h 10m
Tomorrow will be 1m 41s shorter.
New Moon, 2% of the Moon is Illuminated
Today
New Moon
Oct 30
First Quarter
Nov 6
Full
Nov 14
Last Quarter
Nov 22
New

Today's Extremes

State Highs State Lows

Community

WunderPhotos

Upload Photos

1,764,760 photos uploaded!

WunderBlogs® & News

Nearby

Snow Depth

Station Depth Elevation
No new snow has been reported.

Earthquake Activity

City Distance Mag. Time & Date
No recent earthquake activity has been reported nearby.
Minimum magnitude displayed is 2.5.

Coastal Water Temperatures

Place Temperature
No Stations Reporting

Nearby Weather Stations